Time;durP1;ratioP1;P1;durP2;ratioP2;P2;SDS_P1;SDS_P2;PMS_P1;PMS_P2;Temp;Humidity;BMP_temperature;BMP_pressure;BME280_temperature;BME280_humidity;BME280_pressure;Samples;Min_cycle;Max_cycle;Signal;HPM_P1;HPM_P2
2021/11/15 00:02:15;;;;;;;;;37.75;29.50;;;;;;;;5028066;28;45694;-71
2021/11/15 00:04:41;;;;;;;;;31.75;26.75;;;;;;;;5028170;28;45380;-70
2021/11/15 00:07:06;;;;;;;;;35.00;27.33;;;;;;;;5033776;28;45409;-71
2021/11/15 00:09:31;;;;;;;;;30.75;27.25;;;;;;;;5027032;28;45699;-71
2021/11/15 00:11:57;;;;;;;;;38.50;28.00;;;;;;;;5037518;28;45392;-70
2021/11/15 00:14:22;;;;;;;;;37.00;29.00;;;;;;;;5035060;28;45511;-71
2021/11/15 00:16:47;;;;;;;;;37.00;27.50;;;;;;;;5037340;28;46441;-71
2021/11/15 00:19:13;;;;;;;;;29.25;25.25;;;;;;;;5033782;28;45576;-71
2021/11/15 00:21:38;;;;;;;;;26.33;26.33;;;;;;;;5032948;28;45569;-71
2021/11/15 00:24:03;;;;;;;;;40.00;28.67;;;;;;;;5030662;28;45533;-71
2021/11/15 00:26:29;;;;;;;;;32.50;28.00;;;;;;;;5031876;28;46174;-71
2021/11/15 00:28:56;;;;;;;;;32.00;26.33;;;;;;;;5036119;28;45499;-71
2021/11/15 00:31:22;;;;;;;;;39.25;28.50;;;;;;;;5034110;28;45533;-71
2021/11/15 00:33:47;;;;;;;;;31.75;22.50;;;;;;;;5034320;28;46330;-70
2021/11/15 00:36:13;;;;;;;;;34.75;23.50;;;;;;;;5026473;28;45647;-71
2021/11/15 00:38:38;;;;;;;;;31.00;24.50;;;;;;;;5025730;28;46161;-71
2021/11/15 00:41:03;;;;;;;;;30.33;24.33;;;;;;;;5027303;28;45532;-70
2021/11/15 00:43:28;;;;;;;;;32.00;25.00;;;;;;;;5035880;28;45442;-71
2021/11/15 00:45:54;;;;;;;;;27.67;23.67;;;;;;;;5034312;28;45496;-71
2021/11/15 00:48:19;;;;;;;;;31.75;25.25;;;;;;;;5030213;28;45402;-71
2021/11/15 00:50:44;;;;;;;;;27.00;23.33;;;;;;;;5026060;28;45402;-71
2021/11/15 00:53:10;;;;;;;;;38.00;27.50;;;;;;;;5032949;28;45339;-71
2021/11/15 00:55:35;;;;;;;;;31.00;25.50;;;;;;;;5025679;28;46478;-71
2021/11/15 00:58:01;;;;;;;;;30.75;25.50;;;;;;;;5020275;28;45524;-71
2021/11/15 01:00:28;;;;;;;;;27.25;24.75;;;;;;;;5015187;28;49608;-71
2021/11/15 01:02:54;;;;;;;;;36.50;28.50;;;;;;;;5018909;28;45529;-71
2021/11/15 01:05:19;;;;;;;;;32.75;28.50;;;;;;;;5022428;28;46603;-71
2021/11/15 01:07:44;;;;;;;;;29.00;26.67;;;;;;;;5030407;28;45705;-71
2021/11/15 01:10:11;;;;;;;;;31.25;27.25;;;;;;;;5032969;28;45478;-71
2021/11/15 01:12:38;;;;;;;;;31.25;22.00;;;;;;;;5031638;28;45533;-71
2021/11/15 01:15:05;;;;;;;;;34.75;27.00;;;;;;;;5035760;28;45379;-70
2021/11/15 01:17:30;;;;;;;;;31.75;25.75;;;;;;;;5024246;28;45350;-71
2021/11/15 01:19:55;;;;;;;;;34.67;24.00;;;;;;;;5032099;28;45422;-71
2021/11/15 01:22:21;;;;;;;;;36.00;25.67;;;;;;;;5025913;28;45638;-71
2021/11/15 01:24:46;;;;;;;;;35.75;27.25;;;;;;;;5007456;28;46106;-71
2021/11/15 01:27:13;;;;;;;;;29.67;24.33;;;;;;;;5031495;28;45605;-70
2021/11/15 01:29:38;;;;;;;;;42.00;27.75;;;;;;;;5019827;28;45367;-71
2021/11/15 01:32:03;;;;;;;;;29.67;25.00;;;;;;;;5021256;28;45593;-70
2021/11/15 01:34:31;;;;;;;;;32.50;26.75;;;;;;;;5025275;28;46740;-71
2021/11/15 01:36:57;;;;;;;;;32.25;25.50;;;;;;;;5025991;28;46487;-71
2021/11/15 01:39:23;;;;;;;;;34.33;25.33;;;;;;;;5031162;28;45517;-71
2021/11/15 01:41:49;;;;;;;;;35.50;29.50;;;;;;;;5021392;28;45443;-71
2021/11/15 01:44:14;;;;;;;;;35.25;29.75;;;;;;;;5032267;28;46282;-71
2021/11/15 01:46:40;;;;;;;;;33.25;31.75;;;;;;;;5030320;28;45556;-71
2021/11/15 01:49:05;;;;;;;;;34.00;28.00;;;;;;;;5030374;28;45358;-71
2021/11/15 01:51:30;;;;;;;;;29.50;25.50;;;;;;;;5031606;28;45438;-71
2021/11/15 01:53:56;;;;;;;;;32.75;25.00;;;;;;;;5035099;28;47275;-71
2021/11/15 01:56:21;;;;;;;;;31.75;27.00;;;;;;;;5033403;28;45307;-71
2021/11/15 01:58:46;;;;;;;;;31.33;24.00;;;;;;;;5032574;28;45351;-70
2021/11/15 02:01:12;;;;;;;;;27.33;23.67;;;;;;;;5030351;28;45622;-71
2021/11/15 02:03:37;;;;;;;;;32.67;26.00;;;;;;;;5032377;28;45261;-71
2021/11/15 02:06:03;;;;;;;;;30.75;24.00;;;;;;;;5030874;28;45790;-71
2021/11/15 02:08:28;;;;;;;;;28.75;24.50;;;;;;;;5029545;28;45472;-70
2021/11/15 02:10:53;;;;;;;;;32.50;26.25;;;;;;;;5027187;28;45486;-71
2021/11/15 02:13:19;;;;;;;;;31.50;26.75;;;;;;;;5026759;28;46477;-71
2021/11/15 02:15:45;;;;;;;;;27.75;22.00;;;;;;;;5027540;28;45486;-71
2021/11/15 02:18:10;;;;;;;;;31.50;26.25;;;;;;;;5031776;28;45374;-71
2021/11/15 02:20:43;;;;;;;;;43.50;31.75;;;;;;;;5034630;28;45541;-71
2021/11/15 02:23:09;;;;;;;;;30.75;22.25;;;;;;;;5019118;28;45419;-71
2021/11/15 02:25:34;;;;;;;;;31.50;27.00;;;;;;;;5024280;28;45531;-71
2021/11/15 02:27:59;;;;;;;;;34.67;28.00;;;;;;;;5024976;28;45391;-70
2021/11/15 02:30:25;;;;;;;;;33.33;27.33;;;;;;;;5030143;28;45335;-70
2021/11/15 02:32:51;;;;;;;;;29.50;25.00;;;;;;;;5028713;28;46678;-71
2021/11/15 02:35:16;;;;;;;;;37.25;29.25;;;;;;;;5031232;28;45340;-71
2021/11/15 02:37:42;;;;;;;;;31.00;26.50;;;;;;;;5023555;28;46105;-71
2021/11/15 02:40:09;;;;;;;;;35.00;28.75;;;;;;;;5026508;28;45548;-71
2021/11/15 02:42:34;;;;;;;;;41.50;28.50;;;;;;;;5028824;28;46311;-71
2021/11/15 02:45:00;;;;;;;;;27.00;25.50;;;;;;;;5033989;28;45508;-71
2021/11/15 02:47:25;;;;;;;;;36.75;27.50;;;;;;;;5019221;28;45406;-71
2021/11/15 02:49:50;;;;;;;;;33.67;25.00;;;;;;;;5023383;28;45324;-71
2021/11/15 02:52:17;;;;;;;;;28.67;26.00;;;;;;;;5023532;28;46191;-71
2021/11/15 02:54:43;;;;;;;;;34.25;27.75;;;;;;;;5022610;28;45892;-71
2021/11/15 02:57:13;;;;;;;;;33.50;29.50;;;;;;;;5035330;28;45735;-71
2021/11/15 02:59:38;;;;;;;;;31.50;30.50;;;;;;;;5032456;28;45593;-71
2021/11/15 03:02:03;;;;;;;;;35.00;24.67;;;;;;;;5021725;28;46472;-71
2021/11/15 03:04:28;;;;;;;;;30.50;27.00;;;;;;;;5019027;28;45600;-71
2021/11/15 03:06:54;;;;;;;;;39.00;30.00;;;;;;;;5029864;28;45488;-71
2021/11/15 03:09:19;;;;;;;;;39.67;29.00;;;;;;;;5029735;28;45817;-71
2021/11/15 03:11:44;;;;;;;;;31.00;27.00;;;;;;;;5020997;28;45449;-71
2021/11/15 03:14:09;;;;;;;;;32.25;25.50;;;;;;;;5020903;28;45476;-71
2021/11/15 03:16:35;;;;;;;;;43.00;33.00;;;;;;;;5019371;28;46328;-71
2021/11/15 03:19:00;;;;;;;;;35.33;29.67;;;;;;;;5025853;28;45550;-71
2021/11/15 03:21:25;;;;;;;;;42.33;31.67;;;;;;;;5021817;28;45522;-71
2021/11/15 03:23:52;;;;;;;;;38.67;29.00;;;;;;;;5018960;28;45430;-71
2021/11/15 03:26:17;;;;;;;;;39.50;30.25;;;;;;;;5023392;28;45704;-71
2021/11/15 03:28:45;;;;;;;;;42.75;34.25;;;;;;;;5029741;28;45591;-71
2021/11/15 03:31:30;;;;;;;;;34.75;30.50;;;;;;;;5027976;28;46405;-71
2021/11/15 03:33:58;;;;;;;;;39.50;29.25;;;;;;;;5023899;28;45458;-71
2021/11/15 03:36:24;;;;;;;;;37.75;33.75;;;;;;;;5022323;28;45387;-70
2021/11/15 03:38:51;;;;;;;;;47.75;37.00;;;;;;;;5017649;28;45414;-71
2021/11/15 03:41:16;;;;;;;;;39.75;33.00;;;;;;;;4996864;28;47302;-71
2021/11/15 03:43:41;;;;;;;;;47.00;30.67;;;;;;;;5024537;28;45387;-71
2021/11/15 03:46:07;;;;;;;;;39.67;31.67;;;;;;;;5029671;28;45349;-71
2021/11/15 03:48:32;;;;;;;;;39.25;27.50;;;;;;;;5028101;28;45485;-71
2021/11/15 03:50:58;;;;;;;;;52.75;36.75;;;;;;;;5017860;28;45621;-71
2021/11/15 03:53:26;;;;;;;;;39.50;32.25;;;;;;;;5029259;28;45583;-71
2021/11/15 03:55:52;;;;;;;;;37.00;29.00;;;;;;;;5021111;28;45575;-71
2021/11/15 03:58:17;;;;;;;;;37.50;31.75;;;;;;;;5026486;28;45343;-71
2021/11/15 04:00:42;;;;;;;;;45.67;35.00;;;;;;;;5022072;28;45306;-71
2021/11/15 04:03:16;;;;;;;;;47.25;31.75;;;;;;;;5030965;28;45382;-71
2021/11/15 04:05:45;;;;;;;;;43.75;34.00;;;;;;;;5014885;28;45544;-71
2021/11/15 04:08:10;;;;;;;;;40.75;32.25;;;;;;;;5018489;28;45529;-71
2021/11/15 04:10:38;;;;;;;;;50.00;37.00;;;;;;;;5026434;28;46501;-71
2021/11/15 04:13:12;;;;;;;;;43.50;31.25;;;;;;;;5029121;28;45576;-71
2021/11/15 04:15:38;;;;;;;;;45.00;36.25;;;;;;;;5027997;28;45517;-71
2021/11/15 04:18:04;;;;;;;;;48.50;37.50;;;;;;;;5020676;28;45370;-71
2021/11/15 04:20:31;;;;;;;;;43.25;36.25;;;;;;;;5017302;28;46790;-71
2021/11/15 04:22:56;;;;;;;;;46.00;37.25;;;;;;;;5020201;28;45900;-70
2021/11/15 04:25:21;;;;;;;;;47.67;34.00;;;;;;;;5021939;28;45470;-71
2021/11/15 04:27:46;;;;;;;;;43.33;36.67;;;;;;;;5021369;28;45558;-70
2021/11/15 04:30:12;;;;;;;;;48.00;35.67;;;;;;;;5029319;28;45414;-71
2021/11/15 04:32:38;;;;;;;;;47.50;34.00;;;;;;;;5032857;28;45416;-71
2021/11/15 04:35:05;;;;;;;;;46.75;36.25;;;;;;;;5019988;28;45288;-70
2021/11/15 04:37:30;;;;;;;;;45.50;36.50;;;;;;;;5028572;28;45500;-71
2021/11/15 04:39:57;;;;;;;;;46.00;35.67;;;;;;;;5027576;28;45606;-71
2021/11/15 04:42:23;;;;;;;;;44.50;35.50;;;;;;;;5030610;28;45463;-71
2021/11/15 04:44:48;;;;;;;;;39.50;31.25;;;;;;;;5021601;28;45489;-71
2021/11/15 04:47:13;;;;;;;;;50.33;37.00;;;;;;;;5017418;28;45596;-71
2021/11/15 04:49:38;;;;;;;;;42.33;33.67;;;;;;;;5022079;28;45624;-71
2021/11/15 04:52:04;;;;;;;;;42.00;32.00;;;;;;;;5027535;28;45459;-71
2021/11/15 04:54:29;;;;;;;;;44.75;34.25;;;;;;;;5033041;28;45290;-71
2021/11/15 04:56:55;;;;;;;;;36.67;31.33;;;;;;;;5021205;28;45532;-71
2021/11/15 04:59:20;;;;;;;;;47.25;38.25;;;;;;;;5027499;28;46479;-70
2021/11/15 05:01:45;;;;;;;;;38.00;32.33;;;;;;;;5029696;28;45308;-71
2021/11/15 05:04:10;;;;;;;;;43.33;34.00;;;;;;;;5028899;28;45473;-71
2021/11/15 05:06:35;;;;;;;;;44.00;35.75;;;;;;;;5031723;28;45814;-71
2021/11/15 05:09:01;;;;;;;;;47.33;32.67;;;;;;;;5032884;28;46544;-71
2021/11/15 05:11:26;;;;;;;;;44.67;33.00;;;;;;;;5025352;28;45523;-71
2021/11/15 05:13:51;;;;;;;;;45.00;33.75;;;;;;;;5036049;28;45414;-71
2021/11/15 05:16:16;;;;;;;;;37.67;34.33;;;;;;;;5026831;28;45478;-71
2021/11/15 05:18:42;;;;;;;;;56.25;38.50;;;;;;;;5034616;28;46211;-71
2021/11/15 05:21:07;;;;;;;;;45.33;38.33;;;;;;;;5026019;28;45461;-70
2021/11/15 05:23:32;;;;;;;;;35.67;32.33;;;;;;;;5032186;28;45457;-71
2021/11/15 05:25:57;;;;;;;;;38.00;32.33;;;;;;;;5021105;28;45213;-71
2021/11/15 05:28:23;;;;;;;;;43.67;33.67;;;;;;;;5025084;28;45886;-70
2021/11/15 05:30:48;;;;;;;;;41.75;32.00;;;;;;;;5029830;28;45495;-71
2021/11/15 05:33:13;;;;;;;;;40.67;35.00;;;;;;;;5036170;28;45414;-71
2021/11/15 05:35:38;;;;;;;;;42.33;34.00;;;;;;;;5019692;28;45418;-71
2021/11/15 05:38:04;;;;;;;;;41.67;35.00;;;;;;;;5028533;28;45434;-71
2021/11/15 05:40:29;;;;;;;;;45.00;36.00;;;;;;;;5020604;28;47170;-71
2021/11/15 05:42:55;;;;;;;;;41.33;31.67;;;;;;;;5021888;28;45391;-71
2021/11/15 05:45:21;;;;;;;;;45.25;33.50;;;;;;;;5020871;28;45422;-70
2021/11/15 05:47:46;;;;;;;;;37.00;31.25;;;;;;;;5021379;28;46478;-70
2021/11/15 05:50:13;;;;;;;;;44.50;31.50;;;;;;;;5025512;28;45355;-71
2021/11/15 05:52:42;;;;;;;;;43.25;31.50;;;;;;;;5031047;28;45426;-70
2021/11/15 05:55:09;;;;;;;;;37.25;32.00;;;;;;;;5027443;28;45421;-70
2021/11/15 05:57:34;;;;;;;;;43.00;27.50;;;;;;;;5022837;28;47118;-71
2021/11/15 05:59:59;;;;;;;;;43.67;35.67;;;;;;;;5032786;28;45489;-70
2021/11/15 06:02:24;;;;;;;;;46.33;34.67;;;;;;;;5025154;28;45567;-71
2021/11/15 06:04:50;;;;;;;;;42.33;32.33;;;;;;;;5031097;28;45531;-71
2021/11/15 06:07:15;;;;;;;;;46.67;33.67;;;;;;;;5031868;28;46573;-71
2021/11/15 06:09:40;;;;;;;;;46.33;33.33;;;;;;;;5029156;28;45359;-71
2021/11/15 06:12:06;;;;;;;;;46.33;33.67;;;;;;;;5032296;28;45431;-71
2021/11/15 06:14:31;;;;;;;;;44.25;28.50;;;;;;;;5032495;28;45558;-71
2021/11/15 06:16:56;;;;;;;;;45.00;31.25;;;;;;;;5021213;28;46311;-71
2021/11/15 06:19:22;;;;;;;;;46.75;35.50;;;;;;;;5024416;28;46207;-71
2021/11/15 06:21:47;;;;;;;;;41.50;35.25;;;;;;;;5028536;28;45465;-71
2021/11/15 06:24:12;;;;;;;;;44.67;36.33;;;;;;;;5020449;28;45821;-71
2021/11/15 06:26:37;;;;;;;;;42.00;34.33;;;;;;;;5034230;28;46203;-71
2021/11/15 06:29:03;;;;;;;;;31.00;26.33;;;;;;;;5022334;28;45379;-71
2021/11/15 06:31:28;;;;;;;;;38.25;29.75;;;;;;;;5027112;28;45633;-71
2021/11/15 06:33:54;;;;;;;;;39.33;31.33;;;;;;;;5021729;28;45497;-71
2021/11/15 06:36:22;;;;;;;;;37.33;26.67;;;;;;;;5023589;28;46196;-71
2021/11/15 06:38:47;;;;;;;;;47.25;33.75;;;;;;;;5019665;28;45817;-71
2021/11/15 06:41:12;;;;;;;;;43.33;33.33;;;;;;;;5022191;28;45269;-71
2021/11/15 06:43:38;;;;;;;;;51.67;36.00;;;;;;;;5023866;28;45372;-71
2021/11/15 06:46:03;;;;;;;;;42.33;32.33;;;;;;;;5026463;28;46585;-73
2021/11/15 06:48:30;;;;;;;;;38.33;29.00;;;;;;;;5018713;28;45502;-72
2021/11/15 06:50:55;;;;;;;;;37.75;32.50;;;;;;;;5029726;28;45597;-72
2021/11/15 06:53:21;;;;;;;;;33.33;26.67;;;;;;;;5019550;28;45429;-70
2021/11/15 06:55:46;;;;;;;;;36.33;32.33;;;;;;;;5021006;28;46071;-70
2021/11/15 06:58:11;;;;;;;;;32.33;29.00;;;;;;;;5026990;28;45525;-69
2021/11/15 07:00:36;;;;;;;;;35.00;27.00;;;;;;;;5029350;28;45741;-69
2021/11/15 07:03:02;;;;;;;;;43.67;34.00;;;;;;;;5032272;28;45536;-70
2021/11/15 07:05:27;;;;;;;;;58.33;45.33;;;;;;;;5029021;28;45482;-70
2021/11/15 07:07:53;;;;;;;;;44.00;38.00;;;;;;;;5027900;28;45489;-70
2021/11/15 07:10:19;;;;;;;;;55.50;42.50;;;;;;;;5034643;28;45444;-70
2021/11/15 07:12:46;;;;;;;;;53.75;42.25;;;;;;;;5030425;28;46119;-70
2021/11/15 07:15:12;;;;;;;;;38.75;32.75;;;;;;;;5033820;28;46500;-72
2021/11/15 07:17:37;;;;;;;;;47.50;36.75;;;;;;;;5018802;28;45409;-71
2021/11/15 07:20:03;;;;;;;;;46.33;35.00;;;;;;;;5024914;28;45758;-71
2021/11/15 07:22:28;;;;;;;;;54.00;41.00;;;;;;;;5030224;28;45473;-70
2021/11/15 07:24:53;;;;;;;;;44.00;38.00;;;;;;;;5021349;28;46647;-70
2021/11/15 07:27:18;;;;;;;;;47.33;34.00;;;;;;;;5025874;28;45482;-71
2021/11/15 07:29:44;;;;;;;;;42.00;35.67;;;;;;;;5023231;28;45552;-70
2021/11/15 07:32:12;;;;;;;;;67.00;51.67;;;;;;;;5026434;28;45458;-70
2021/11/15 07:34:38;;;;;;;;;68.25;50.50;;;;;;;;5025541;28;47348;-70
2021/11/15 07:37:03;;;;;;;;;77.50;59.50;;;;;;;;5027390;28;45450;-70
2021/11/15 07:39:28;;;;;;;;;66.00;52.25;;;;;;;;5028440;28;45406;-70
2021/11/15 07:41:53;;;;;;;;;65.33;51.67;;;;;;;;5026932;28;45494;-70
2021/11/15 07:44:19;;;;;;;;;78.00;61.33;;;;;;;;5030338;28;46322;-70
2021/11/15 07:46:45;;;;;;;;;63.67;44.00;;;;;;;;5025529;28;45479;-70
2021/11/15 07:49:10;;;;;;;;;70.00;50.50;;;;;;;;5024807;28;45497;-70
2021/11/15 07:51:35;;;;;;;;;107.00;84.33;;;;;;;;5024130;28;45232;-70
2021/11/15 07:54:01;;;;;;;;;45.67;36.67;;;;;;;;5024539;28;46378;-70
2021/11/15 07:56:26;;;;;;;;;42.00;36.33;;;;;;;;5019365;28;45673;-70
2021/11/15 07:58:51;;;;;;;;;58.00;48.00;;;;;;;;5026068;28;45672;-71
2021/11/15 08:01:16;;;;;;;;;84.33;64.00;;;;;;;;5024325;28;45459;-70
2021/11/15 08:03:42;;;;;;;;;72.33;51.67;;;;;;;;5025518;28;46298;-70
2021/11/15 08:06:10;;;;;;;;;65.25;46.50;;;;;;;;5032975;28;45373;-70
2021/11/15 08:08:35;;;;;;;;;48.50;38.25;;;;;;;;5030998;28;45562;-70
2021/11/15 08:11:01;;;;;;;;;52.50;39.50;;;;;;;;5030839;28;45782;-70
2021/11/15 08:13:27;;;;;;;;;59.25;42.50;;;;;;;;5021770;28;46449;-70
2021/11/15 08:15:52;;;;;;;;;51.67;38.33;;;;;;;;5027873;28;45513;-70
2021/11/15 08:18:17;;;;;;;;;60.67;46.00;;;;;;;;5026599;28;45467;-70
2021/11/15 08:20:42;;;;;;;;;54.67;38.00;;;;;;;;5027300;28;45658;-71
2021/11/15 08:23:09;;;;;;;;;45.33;38.67;;;;;;;;5034011;28;45378;-71
2021/11/15 08:25:53;;;;;;;;;61.75;44.00;;;;;;;;5024484;28;45826;-71
2021/11/15 08:28:19;;;;;;;;;62.75;45.75;;;;;;;;5035035;28;45530;-70
2021/11/15 08:30:44;;;;;;;;;54.75;38.50;;;;;;;;5031672;28;49130;-70
2021/11/15 08:33:11;;;;;;;;;73.75;57.75;;;;;;;;5031039;28;45786;-70
2021/11/15 08:35:36;;;;;;;;;56.50;41.50;;;;;;;;5021616;28;45455;-70
2021/11/15 08:38:15;;;;;;;;;51.67;41.00;;;;;;;;5035530;28;45326;-70
2021/11/15 08:40:45;;;;;;;;;61.75;44.00;;;;;;;;5028675;28;45529;-70
2021/11/15 08:43:10;;;;;;;;;69.75;50.25;;;;;;;;5029892;28;45539;-70
2021/11/15 08:45:35;;;;;;;;;64.00;42.00;;;;;;;;5028811;28;45572;-70
2021/11/15 08:48:02;;;;;;;;;47.25;35.50;;;;;;;;5033236;28;45565;-70
2021/11/15 08:50:27;;;;;;;;;48.00;36.50;;;;;;;;5021341;28;45360;-70
2021/11/15 08:52:53;;;;;;;;;38.67;32.67;;;;;;;;5023928;28;46786;-70
2021/11/15 08:55:18;;;;;;;;;43.33;34.33;;;;;;;;5025420;28;45599;-70
2021/11/15 08:57:43;;;;;;;;;48.67;38.67;;;;;;;;5025712;28;45251;-70
2021/11/15 09:00:09;;;;;;;;;56.33;39.00;;;;;;;;5024545;28;45565;-70
2021/11/15 09:02:34;;;;;;;;;48.75;36.50;;;;;;;;5020104;28;47285;-70
2021/11/15 09:04:59;;;;;;;;;53.33;39.00;;;;;;;;5023278;28;45473;-70
2021/11/15 09:07:24;;;;;;;;;63.00;50.33;;;;;;;;5025288;28;45481;-70
2021/11/15 09:09:49;;;;;;;;;67.33;49.67;;;;;;;;5025775;28;45485;-70
2021/11/15 09:12:16;;;;;;;;;54.25;39.25;;;;;;;;5025006;28;45456;-70
2021/11/15 09:14:41;;;;;;;;;47.50;40.00;;;;;;;;5020564;28;45370;-70
2021/11/15 09:17:07;;;;;;;;;58.33;39.33;;;;;;;;5021574;28;45343;-70
2021/11/15 09:19:33;;;;;;;;;52.50;39.00;;;;;;;;5030245;28;45558;-70
2021/11/15 09:21:59;;;;;;;;;40.00;36.25;;;;;;;;5030697;28;46579;-70
2021/11/15 09:24:24;;;;;;;;;52.50;41.00;;;;;;;;5021410;28;45568;-70
2021/11/15 09:26:50;;;;;;;;;44.67;38.67;;;;;;;;5036902;28;45369;-70
2021/11/15 09:29:18;;;;;;;;;49.00;38.75;;;;;;;;5020619;28;45241;-70
2021/11/15 09:31:43;;;;;;;;;50.50;39.25;;;;;;;;5031329;28;45552;-69
2021/11/15 09:34:08;;;;;;;;;43.67;35.33;;;;;;;;5029506;28;45269;-70
2021/11/15 09:36:34;;;;;;;;;35.67;28.00;;;;;;;;5023622;28;45554;-70
2021/11/15 09:38:59;;;;;;;;;45.25;38.00;;;;;;;;5022579;28;45332;-70
2021/11/15 09:41:25;;;;;;;;;45.00;35.00;;;;;;;;5020174;28;46356;-70
2021/11/15 09:43:51;;;;;;;;;36.75;31.00;;;;;;;;5023953;28;45520;-70
2021/11/15 09:46:18;;;;;;;;;43.50;34.50;;;;;;;;5024423;28;45398;-70
2021/11/15 09:48:45;;;;;;;;;44.00;30.25;;;;;;;;5009363;28;45539;-70
2021/11/15 09:51:11;;;;;;;;;50.75;36.75;;;;;;;;5023510;28;46161;-70
2021/11/15 09:53:37;;;;;;;;;56.50;39.00;;;;;;;;5019996;28;45348;-70
2021/11/15 09:56:03;;;;;;;;;47.00;35.75;;;;;;;;5022190;28;45460;-70
2021/11/15 09:58:29;;;;;;;;;55.75;42.75;;;;;;;;5025053;28;45458;-70
2021/11/15 10:00:54;;;;;;;;;58.50;47.50;;;;;;;;5024031;28;46389;-70
2021/11/15 10:03:19;;;;;;;;;71.00;50.33;;;;;;;;5020487;28;45397;-70
2021/11/15 10:05:45;;;;;;;;;66.00;49.33;;;;;;;;5036017;28;45398;-70
2021/11/15 10:08:12;;;;;;;;;60.25;47.75;;;;;;;;5031752;28;45378;-70
2021/11/15 10:10:44;;;;;;;;;50.25;37.00;;;;;;;;5031020;28;45782;-70
2021/11/15 10:13:10;;;;;;;;;99.00;80.50;;;;;;;;5028689;28;45846;-70
2021/11/15 10:15:45;;;;;;;;;90.00;68.00;;;;;;;;5019826;28;45517;-70
2021/11/15 10:18:12;;;;;;;;;62.50;41.75;;;;;;;;5023379;28;45492;-70
2021/11/15 10:20:49;;;;;;;;;88.25;67.00;;;;;;;;5019336;28;46275;-70
2021/11/15 10:23:32;;;;;;;;;58.50;44.50;;;;;;;;5036343;28;45347;-70
2021/11/15 10:26:00;;;;;;;;;51.75;39.50;;;;;;;;5032061;28;45401;-70
2021/11/15 10:28:26;;;;;;;;;69.50;53.00;;;;;;;;5025546;28;45654;-70
2021/11/15 10:30:51;;;;;;;;;71.50;57.25;;;;;;;;5023753;28;45346;-70
2021/11/15 10:33:18;;;;;;;;;42.33;37.00;;;;;;;;5024029;28;45660;-70
2021/11/15 10:35:46;;;;;;;;;56.75;38.25;;;;;;;;5019602;28;45420;-70
2021/11/15 10:38:11;;;;;;;;;50.50;40.75;;;;;;;;5031912;28;45384;-70
2021/11/15 10:40:37;;;;;;;;;42.00;36.00;;;;;;;;5030681;28;45587;-70
2021/11/15 10:43:06;;;;;;;;;47.75;34.00;;;;;;;;5030229;28;45375;-70
2021/11/15 10:45:31;;;;;;;;;40.00;29.50;;;;;;;;5014143;28;45322;-70
2021/11/15 10:48:01;;;;;;;;;43.67;28.67;;;;;;;;5034630;28;45458;-70
2021/11/15 10:50:45;;;;;;;;;55.50;36.00;;;;;;;;5018966;28;46376;-70
2021/11/15 10:53:13;;;;;;;;;49.50;35.50;;;;;;;;5031191;28;45865;-70
2021/11/15 10:55:44;;;;;;;;;47.25;37.50;;;;;;;;5030566;28;45378;-70
2021/11/15 10:58:18;;;;;;;;;54.50;42.00;;;;;;;;5027162;28;45509;-70
2021/11/15 11:00:51;;;;;;;;;49.00;37.50;;;;;;;;5023805;28;45500;-70
2021/11/15 11:03:19;;;;;;;;;60.00;42.25;;;;;;;;5023847;28;45379;-70
2021/11/15 11:05:46;;;;;;;;;53.25;39.00;;;;;;;;5019229;28;45378;-70
2021/11/15 11:08:25;;;;;;;;;62.75;44.75;;;;;;;;5031194;28;45304;-70
2021/11/15 11:11:01;;;;;;;;;53.50;40.75;;;;;;;;5021630;28;46334;-70
2021/11/15 11:13:42;;;;;;;;;57.50;43.00;;;;;;;;5028169;28;45273;-70
2021/11/15 11:16:07;;;;;;;;;81.00;60.00;;;;;;;;5024664;28;45413;-70
2021/11/15 11:18:35;;;;;;;;;46.00;29.00;;;;;;;;5025380;28;45460;-70
2021/11/15 11:26:13;;;;;;;;;45.50;36.50;;;;;;;;5031088;28;45336;-70
2021/11/15 11:28:42;;;;;;;;;37.25;30.00;;;;;;;;5029813;28;45513;-70
2021/11/15 11:31:09;;;;;;;;;47.25;34.75;;;;;;;;5027378;28;45538;-70
2021/11/15 11:33:34;;;;;;;;;35.75;26.75;;;;;;;;5023094;28;45775;-70
2021/11/15 11:36:00;;;;;;;;;55.25;38.00;;;;;;;;5020757;28;45543;-70
2021/11/15 11:38:26;;;;;;;;;39.50;28.75;;;;;;;;5018657;28;45423;-70
2021/11/15 11:40:53;;;;;;;;;49.00;38.25;;;;;;;;5021485;28;46029;-69
2021/11/15 11:43:18;;;;;;;;;43.50;35.75;;;;;;;;5022992;28;45529;-70
2021/11/15 11:45:44;;;;;;;;;41.25;35.00;;;;;;;;5021523;28;45378;-70
2021/11/15 11:48:09;;;;;;;;;39.25;36.00;;;;;;;;5032732;28;45613;-70
2021/11/15 11:50:36;;;;;;;;;50.50;38.75;;;;;;;;5018409;28;46156;-70
2021/11/15 11:53:05;;;;;;;;;42.50;31.25;;;;;;;;5020289;28;45363;-70
2021/11/15 11:55:34;;;;;;;;;54.50;38.25;;;;;;;;5022502;28;45521;-70
2021/11/15 11:58:18;;;;;;;;;48.75;33.75;;;;;;;;5022655;28;45519;-70
2021/11/15 12:00:45;;;;;;;;;46.50;34.00;;;;;;;;5002998;28;47967;-69
2021/11/15 12:03:10;;;;;;;;;42.75;30.75;;;;;;;;5034056;28;45942;-70
2021/11/15 12:05:36;;;;;;;;;51.00;36.00;;;;;;;;5018074;28;45482;-72
2021/11/15 12:08:04;;;;;;;;;38.75;34.75;;;;;;;;5020054;28;45387;-69
2021/11/15 12:10:57;;;;;;;;;41.00;35.50;;;;;;;;5022431;28;45463;-69
2021/11/15 12:13:24;;;;;;;;;52.75;33.75;;;;;;;;5022893;28;45427;-69
2021/11/15 12:15:49;;;;;;;;;53.00;37.00;;;;;;;;5022085;28;45308;-69
2021/11/15 12:18:22;;;;;;;;;38.50;32.00;;;;;;;;5034077;28;45506;-69
2021/11/15 12:21:00;;;;;;;;;46.50;37.00;;;;;;;;5018389;28;46728;-69
2021/11/15 12:23:25;;;;;;;;;49.25;37.00;;;;;;;;5017865;28;45423;-69
2021/11/15 12:26:00;;;;;;;;;56.00;36.25;;;;;;;;5021262;28;45381;-69
2021/11/15 12:28:27;;;;;;;;;47.75;39.00;;;;;;;;5022491;28;45525;-69
2021/11/15 12:30:52;;;;;;;;;49.50;39.00;;;;;;;;5022094;28;47655;-70
2021/11/15 12:33:21;;;;;;;;;75.67;53.33;;;;;;;;5022440;28;45388;-69
2021/11/15 12:35:50;;;;;;;;;86.75;64.75;;;;;;;;5018469;28;45365;-69
2021/11/15 12:38:39;;;;;;;;;82.00;59.00;;;;;;;;5018141;28;45304;-69
2021/11/15 12:41:25;;;;;;;;;72.50;52.75;;;;;;;;5018877;28;46757;-69
2021/11/15 12:44:06;;;;;;;;;60.00;46.25;;;;;;;;5019631;28;45546;-69
2021/11/15 12:46:42;;;;;;;;;56.75;41.25;;;;;;;;5021147;28;45279;-70
2021/11/15 12:49:33;;;;;;;;;66.75;49.50;;;;;;;;5022297;28;45447;-69
2021/11/15 12:52:14;;;;;;;;;76.25;54.00;;;;;;;;5021766;28;45673;-70
2021/11/15 12:54:39;;;;;;;;;71.00;54.75;;;;;;;;5021534;28;46003;-69
2021/11/15 12:57:16;;;;;;;;;70.67;55.33;;;;;;;;5020883;28;45426;-69
2021/11/15 12:59:46;;;;;;;;;60.25;47.25;;;;;;;;5028944;28;45454;-69
2021/11/15 13:02:11;;;;;;;;;57.75;41.50;;;;;;;;5033956;28;46829;-69
2021/11/15 13:04:38;;;;;;;;;65.33;48.00;;;;;;;;5028963;28;45484;-69
2021/11/15 13:07:04;;;;;;;;;63.25;46.25;;;;;;;;5026646;28;45522;-69
2021/11/15 13:09:30;;;;;;;;;66.25;46.00;;;;;;;;5021461;28;45624;-69
2021/11/15 13:11:56;;;;;;;;;49.25;37.50;;;;;;;;5021116;28;46054;-69
2021/11/15 13:14:21;;;;;;;;;66.50;51.75;;;;;;;;5020779;28;45956;-69
2021/11/15 13:16:47;;;;;;;;;58.00;41.33;;;;;;;;5029180;28;45344;-70
2021/11/15 13:19:13;;;;;;;;;58.25;42.00;;;;;;;;5028894;28;45794;-70
2021/11/15 13:21:42;;;;;;;;;59.25;41.50;;;;;;;;5033196;28;45453;-69
2021/11/15 13:24:09;;;;;;;;;56.75;43.50;;;;;;;;5023503;28;45952;-70
2021/11/15 13:26:35;;;;;;;;;52.75;37.75;;;;;;;;5020768;28;45336;-69
2021/11/15 13:29:04;;;;;;;;;60.00;47.00;;;;;;;;5022416;28;45531;-70
2021/11/15 13:31:29;;;;;;;;;46.25;37.25;;;;;;;;5024870;28;46710;-69
2021/11/15 13:33:55;;;;;;;;;50.50;37.00;;;;;;;;5024830;28;45363;-69
2021/11/15 13:36:20;;;;;;;;;45.75;32.00;;;;;;;;5025442;28;45385;-70
2021/11/15 13:38:46;;;;;;;;;48.33;34.67;;;;;;;;5020617;28;45836;-70
2021/11/15 13:41:11;;;;;;;;;49.33;37.33;;;;;;;;5020896;28;45506;-70
2021/11/15 13:43:36;;;;;;;;;41.00;29.00;;;;;;;;5024896;28;45359;-69
2021/11/15 13:46:07;;;;;;;;;55.33;36.00;;;;;;;;5025281;28;45991;-69
2021/11/15 13:48:32;;;;;;;;;47.25;36.25;;;;;;;;5025087;28;45431;-69
2021/11/15 13:50:57;;;;;;;;;50.67;36.00;;;;;;;;5022183;28;45488;-69
2021/11/15 13:53:22;;;;;;;;;48.00;34.67;;;;;;;;5019597;28;45398;-69
2021/11/15 13:55:49;;;;;;;;;41.67;30.00;;;;;;;;5023562;28;45406;-69
2021/11/15 13:58:15;;;;;;;;;48.00;37.50;;;;;;;;5028709;28;45537;-70
2021/11/15 14:00:40;;;;;;;;;45.67;35.00;;;;;;;;5032278;28;45319;-71
2021/11/15 14:03:05;;;;;;;;;39.25;29.75;;;;;;;;5023073;28;47237;-69
2021/11/15 14:05:32;;;;;;;;;37.67;26.33;;;;;;;;5019711;28;45400;-69
2021/11/15 14:07:58;;;;;;;;;39.50;34.25;;;;;;;;5004234;28;45624;-70
2021/11/15 14:10:23;;;;;;;;;44.75;31.25;;;;;;;;5024020;28;46983;-70
2021/11/15 14:12:48;;;;;;;;;32.00;25.67;;;;;;;;5024466;28;45674;-70
2021/11/15 14:15:14;;;;;;;;;41.67;29.67;;;;;;;;5019571;28;45744;-69
2021/11/15 14:17:41;;;;;;;;;32.25;23.25;;;;;;;;5035574;28;45477;-70
2021/11/15 14:20:07;;;;;;;;;38.00;26.25;;;;;;;;5020455;28;47586;-70